sensor_id;sensor_type;location;lat;lon;timestamp;P1;durP1;ratioP1;P2;durP2;ratioP2
31674;SDS011;18276;45.520;11.018;2023-06-04T00:02:23;7.00;;;4.82;;
31674;SDS011;18276;45.520;11.018;2023-06-04T00:04:51;7.47;;;5.45;;
31674;SDS011;18276;45.520;11.018;2023-06-04T00:07:18;7.35;;;4.47;;
31674;SDS011;18276;45.520;11.018;2023-06-04T00:09:45;7.15;;;5.28;;
31674;SDS011;18276;45.520;11.018;2023-06-04T00:12:13;5.10;;;4.32;;
31674;SDS011;18276;45.520;11.018;2023-06-04T00:14:41;8.25;;;5.47;;
31674;SDS011;18276;45.520;11.018;2023-06-04T00:17:08;10.40;;;5.10;;
31674;SDS011;18276;45.520;11.018;2023-06-04T00:19:39;6.30;;;4.70;;
31674;SDS011;18276;45.520;11.018;2023-06-04T00:22:07;13.05;;;4.80;;
31674;SDS011;18276;45.520;11.018;2023-06-04T00:24:35;5.10;;;4.25;;
31674;SDS011;18276;45.520;11.018;2023-06-04T00:27:04;8.88;;;4.50;;
31674;SDS011;18276;45.520;11.018;2023-06-04T00:29:31;9.68;;;5.43;;
31674;SDS011;18276;45.520;11.018;2023-06-04T00:31:58;7.97;;;4.53;;
31674;SDS011;18276;45.520;11.018;2023-06-04T00:34:26;5.97;;;4.50;;
31674;SDS011;18276;45.520;11.018;2023-06-04T00:36:53;6.30;;;4.05;;
31674;SDS011;18276;45.520;11.018;2023-06-04T00:39:20;5.72;;;4.18;;
31674;SDS011;18276;45.520;11.018;2023-06-04T00:41:47;5.90;;;4.32;;
31674;SDS011;18276;45.520;11.018;2023-06-04T00:44:14;6.43;;;4.70;;
31674;SDS011;18276;45.520;11.018;2023-06-04T00:46:41;5.13;;;4.35;;
31674;SDS011;18276;45.520;11.018;2023-06-04T00:49:12;5.88;;;4.18;;
31674;SDS011;18276;45.520;11.018;2023-06-04T00:51:39;6.25;;;4.65;;
31674;SDS011;18276;45.520;11.018;2023-06-04T00:54:07;4.75;;;4.30;;
31674;SDS011;18276;45.520;11.018;2023-06-04T00:56:36;5.72;;;4.18;;
31674;SDS011;18276;45.520;11.018;2023-06-04T00:59:04;8.85;;;4.60;;
31674;SDS011;18276;45.520;11.018;2023-06-04T01:01:37;7.80;;;4.20;;
31674;SDS011;18276;45.520;11.018;2023-06-04T01:04:26;5.38;;;3.63;;
31674;SDS011;18276;45.520;11.018;2023-06-04T01:06:58;6.75;;;4.13;;
31674;SDS011;18276;45.520;11.018;2023-06-04T01:09:29;4.45;;;3.72;;
31674;SDS011;18276;45.520;11.018;2023-06-04T01:11:57;7.07;;;4.55;;
31674;SDS011;18276;45.520;11.018;2023-06-04T01:14:25;4.80;;;3.55;;
31674;SDS011;18276;45.520;11.018;2023-06-04T01:17:02;7.30;;;4.32;;
31674;SDS011;18276;45.520;11.018;2023-06-04T01:22:24;7.97;;;4.72;;
31674;SDS011;18276;45.520;11.018;2023-06-04T01:25:04;11.10;;;5.10;;
31674;SDS011;18276;45.520;11.018;2023-06-04T01:27:49;8.88;;;5.35;;
31674;SDS011;18276;45.520;11.018;2023-06-04T01:30:21;8.40;;;5.70;;
31674;SDS011;18276;45.520;11.018;2023-06-04T01:32:54;8.53;;;5.53;;
31674;SDS011;18276;45.520;11.018;2023-06-04T01:35:23;10.68;;;5.57;;
31674;SDS011;18276;45.520;11.018;2023-06-04T01:37:54;6.32;;;4.90;;
31674;SDS011;18276;45.520;11.018;2023-06-04T01:40:21;5.57;;;4.90;;
31674;SDS011;18276;45.520;11.018;2023-06-04T01:42:49;9.48;;;5.65;;
31674;SDS011;18276;45.520;11.018;2023-06-04T01:45:16;7.10;;;5.60;;
31674;SDS011;18276;45.520;11.018;2023-06-04T01:47:43;9.63;;;5.70;;
31674;SDS011;18276;45.520;11.018;2023-06-04T01:50:11;7.85;;;5.45;;
31674;SDS011;18276;45.520;11.018;2023-06-04T01:52:38;9.55;;;5.50;;
31674;SDS011;18276;45.520;11.018;2023-06-04T01:55:06;9.80;;;5.78;;
31674;SDS011;18276;45.520;11.018;2023-06-04T01:57:35;5.93;;;4.88;;
31674;SDS011;18276;45.520;11.018;2023-06-04T02:00:03;9.32;;;5.65;;
31674;SDS011;18276;45.520;11.018;2023-06-04T02:02:38;7.68;;;5.57;;
31674;SDS011;18276;45.520;11.018;2023-06-04T02:05:08;9.52;;;4.93;;
31674;SDS011;18276;45.520;11.018;2023-06-04T02:07:36;6.50;;;5.57;;
31674;SDS011;18276;45.520;11.018;2023-06-04T02:10:09;9.18;;;5.55;;
31674;SDS011;18276;45.520;11.018;2023-06-04T02:12:38;9.98;;;6.25;;
31674;SDS011;18276;45.520;11.018;2023-06-04T02:15:09;7.63;;;5.15;;
31674;SDS011;18276;45.520;11.018;2023-06-04T02:17:37;8.43;;;5.68;;
31674;SDS011;18276;45.520;11.018;2023-06-04T02:20:06;7.97;;;5.35;;
31674;SDS011;18276;45.520;11.018;2023-06-04T02:22:36;8.10;;;6.20;;
31674;SDS011;18276;45.520;11.018;2023-06-04T02:25:04;9.60;;;5.60;;
31674;SDS011;18276;45.520;11.018;2023-06-04T02:27:32;5.85;;;5.25;;
31674;SDS011;18276;45.520;11.018;2023-06-04T02:29:59;7.57;;;4.88;;
31674;SDS011;18276;45.520;11.018;2023-06-04T02:32:26;8.27;;;5.43;;
31674;SDS011;18276;45.520;11.018;2023-06-04T02:34:55;7.25;;;5.20;;
31674;SDS011;18276;45.520;11.018;2023-06-04T02:37:22;7.57;;;5.55;;
31674;SDS011;18276;45.520;11.018;2023-06-04T02:39:49;7.72;;;4.65;;
31674;SDS011;18276;45.520;11.018;2023-06-04T02:42:16;6.07;;;4.95;;
31674;SDS011;18276;45.520;11.018;2023-06-04T02:44:44;5.70;;;4.97;;
31674;SDS011;18276;45.520;11.018;2023-06-04T02:47:11;7.22;;;5.22;;
31674;SDS011;18276;45.520;11.018;2023-06-04T02:49:37;7.30;;;5.30;;
31674;SDS011;18276;45.520;11.018;2023-06-04T02:52:05;7.57;;;4.82;;
31674;SDS011;18276;45.520;11.018;2023-06-04T02:54:32;8.73;;;5.88;;
31674;SDS011;18276;45.520;11.018;2023-06-04T02:56:59;6.75;;;4.85;;
31674;SDS011;18276;45.520;11.018;2023-06-04T02:59:26;9.13;;;5.18;;
31674;SDS011;18276;45.520;11.018;2023-06-04T03:01:54;7.63;;;5.68;;
31674;SDS011;18276;45.520;11.018;2023-06-04T03:04:21;6.93;;;4.72;;
31674;SDS011;18276;45.520;11.018;2023-06-04T03:06:48;10.00;;;5.70;;
31674;SDS011;18276;45.520;11.018;2023-06-04T03:09:18;9.20;;;5.13;;
31674;SDS011;18276;45.520;11.018;2023-06-04T03:11:45;6.05;;;5.05;;
31674;SDS011;18276;45.520;11.018;2023-06-04T03:14:13;10.50;;;4.80;;
31674;SDS011;18276;45.520;11.018;2023-06-04T03:16:40;6.35;;;5.68;;
31674;SDS011;18276;45.520;11.018;2023-06-04T03:19:07;7.07;;;5.07;;
31674;SDS011;18276;45.520;11.018;2023-06-04T03:21:34;8.43;;;5.78;;
31674;SDS011;18276;45.520;11.018;2023-06-04T03:24:02;7.85;;;6.13;;
31674;SDS011;18276;45.520;11.018;2023-06-04T03:26:29;10.73;;;6.45;;
31674;SDS011;18276;45.520;11.018;2023-06-04T03:28:56;8.68;;;5.43;;
31674;SDS011;18276;45.520;11.018;2023-06-04T03:31:23;10.80;;;6.18;;
31674;SDS011;18276;45.520;11.018;2023-06-04T03:33:51;6.65;;;5.60;;
31674;SDS011;18276;45.520;11.018;2023-06-04T03:36:18;8.48;;;6.38;;
31674;SDS011;18276;45.520;11.018;2023-06-04T03:38:45;8.70;;;6.15;;
31674;SDS011;18276;45.520;11.018;2023-06-04T03:41:13;8.38;;;6.03;;
31674;SDS011;18276;45.520;11.018;2023-06-04T03:43:41;11.98;;;6.22;;
31674;SDS011;18276;45.520;11.018;2023-06-04T03:46:10;8.57;;;5.72;;
31674;SDS011;18276;45.520;11.018;2023-06-04T03:48:37;7.35;;;5.68;;
31674;SDS011;18276;45.520;11.018;2023-06-04T03:51:04;7.10;;;5.57;;
31674;SDS011;18276;45.520;11.018;2023-06-04T03:53:33;8.18;;;6.30;;
31674;SDS011;18276;45.520;11.018;2023-06-04T03:56:01;10.18;;;6.97;;
31674;SDS011;18276;45.520;11.018;2023-06-04T03:58:28;7.70;;;6.55;;
31674;SDS011;18276;45.520;11.018;2023-06-04T04:00:56;10.60;;;7.03;;
31674;SDS011;18276;45.520;11.018;2023-06-04T04:03:24;11.30;;;6.13;;
31674;SDS011;18276;45.520;11.018;2023-06-04T04:05:51;8.50;;;6.55;;
31674;SDS011;18276;45.520;11.018;2023-06-04T04:08:18;8.73;;;5.95;;
31674;SDS011;18276;45.520;11.018;2023-06-04T04:10:48;11.70;;;6.72;;
31674;SDS011;18276;45.520;11.018;2023-06-04T04:13:16;9.45;;;6.25;;
31674;SDS011;18276;45.520;11.018;2023-06-04T04:15:44;9.57;;;5.82;;
31674;SDS011;18276;45.520;11.018;2023-06-04T04:18:11;7.97;;;6.53;;
31674;SDS011;18276;45.520;11.018;2023-06-04T04:20:40;11.23;;;6.63;;
31674;SDS011;18276;45.520;11.018;2023-06-04T04:23:09;10.48;;;6.63;;
31674;SDS011;18276;45.520;11.018;2023-06-04T04:25:40;8.27;;;7.13;;
31674;SDS011;18276;45.520;11.018;2023-06-04T04:28:07;10.90;;;6.25;;
31674;SDS011;18276;45.520;11.018;2023-06-04T04:30:36;7.78;;;6.82;;
31674;SDS011;18276;45.520;11.018;2023-06-04T04:33:06;7.72;;;5.63;;
31674;SDS011;18276;45.520;11.018;2023-06-04T04:35:44;7.30;;;6.35;;
31674;SDS011;18276;45.520;11.018;2023-06-04T04:38:14;8.98;;;6.72;;
31674;SDS011;18276;45.520;11.018;2023-06-04T04:40:49;10.45;;;7.63;;
31674;SDS011;18276;45.520;11.018;2023-06-04T04:43:28;12.15;;;7.55;;
31674;SDS011;18276;45.520;11.018;2023-06-04T04:45:57;11.10;;;7.30;;
31674;SDS011;18276;45.520;11.018;2023-06-04T04:48:25;9.93;;;6.57;;
31674;SDS011;18276;45.520;11.018;2023-06-04T04:50:53;7.55;;;6.50;;
31674;SDS011;18276;45.520;11.018;2023-06-04T04:53:20;8.50;;;7.65;;
31674;SDS011;18276;45.520;11.018;2023-06-04T04:55:48;10.50;;;6.68;;
31674;SDS011;18276;45.520;11.018;2023-06-04T04:58:16;7.60;;;6.53;;
31674;SDS011;18276;45.520;11.018;2023-06-04T05:00:44;8.43;;;6.72;;
31674;SDS011;18276;45.520;11.018;2023-06-04T05:03:14;10.35;;;6.88;;
31674;SDS011;18276;45.520;11.018;2023-06-04T05:05:41;9.27;;;6.40;;
31674;SDS011;18276;45.520;11.018;2023-06-04T05:08:11;8.52;;;6.47;;
31674;SDS011;18276;45.520;11.018;2023-06-04T05:10:41;6.78;;;6.07;;
31674;SDS011;18276;45.520;11.018;2023-06-04T05:13:09;9.90;;;6.78;;
31674;SDS011;18276;45.520;11.018;2023-06-04T05:15:46;8.70;;;6.50;;
31674;SDS011;18276;45.520;11.018;2023-06-04T05:18:17;6.72;;;5.70;;
31674;SDS011;18276;45.520;11.018;2023-06-04T05:20:49;12.38;;;6.25;;
31674;SDS011;18276;45.520;11.018;2023-06-04T05:23:17;9.68;;;5.68;;
31674;SDS011;18276;45.520;11.018;2023-06-04T05:25:47;9.43;;;6.13;;
31674;SDS011;18276;45.520;11.018;2023-06-04T05:28:16;8.18;;;5.50;;
31674;SDS011;18276;45.520;11.018;2023-06-04T05:30:43;7.28;;;5.70;;
31674;SDS011;18276;45.520;11.018;2023-06-04T05:33:11;7.78;;;6.55;;
31674;SDS011;18276;45.520;11.018;2023-06-04T05:35:50;8.80;;;6.03;;
31674;SDS011;18276;45.520;11.018;2023-06-04T05:38:21;8.18;;;5.88;;
31674;SDS011;18276;45.520;11.018;2023-06-04T05:40:54;8.75;;;5.97;;
31674;SDS011;18276;45.520;11.018;2023-06-04T05:43:24;8.93;;;6.38;;
31674;SDS011;18276;45.520;11.018;2023-06-04T05:45:51;7.97;;;5.85;;
31674;SDS011;18276;45.520;11.018;2023-06-04T05:48:19;6.57;;;5.55;;
31674;SDS011;18276;45.520;11.018;2023-06-04T05:50:46;8.48;;;6.05;;
31674;SDS011;18276;45.520;11.018;2023-06-04T05:53:14;6.65;;;5.55;;
31674;SDS011;18276;45.520;11.018;2023-06-04T05:55:44;10.95;;;6.53;;
31674;SDS011;18276;45.520;11.018;2023-06-04T05:58:11;8.95;;;5.88;;
31674;SDS011;18276;45.520;11.018;2023-06-04T06:00:39;9.80;;;6.57;;
31674;SDS011;18276;45.520;11.018;2023-06-04T06:03:07;12.15;;;6.45;;
31674;SDS011;18276;45.520;11.018;2023-06-04T06:05:40;9.02;;;6.75;;
31674;SDS011;18276;45.520;11.018;2023-06-04T06:08:07;9.15;;;6.72;;
31674;SDS011;18276;45.520;11.018;2023-06-04T06:10:34;9.90;;;6.93;;
31674;SDS011;18276;45.520;11.018;2023-06-04T06:13:02;10.30;;;7.07;;
31674;SDS011;18276;45.520;11.018;2023-06-04T06:15:29;9.80;;;6.50;;
31674;SDS011;18276;45.520;11.018;2023-06-04T06:17:57;9.48;;;7.65;;
31674;SDS011;18276;45.520;11.018;2023-06-04T06:20:24;11.35;;;7.78;;
31674;SDS011;18276;45.520;11.018;2023-06-04T06:22:51;16.83;;;8.60;;
31674;SDS011;18276;45.520;11.018;2023-06-04T06:25:22;15.43;;;10.85;;
31674;SDS011;18276;45.520;11.018;2023-06-04T06:28:02;11.05;;;6.85;;
31674;SDS011;18276;45.520;11.018;2023-06-04T06:30:30;9.90;;;6.70;;
31674;SDS011;18276;45.520;11.018;2023-06-04T06:32:57;13.27;;;7.82;;
31674;SDS011;18276;45.520;11.018;2023-06-04T06:35:24;13.02;;;8.35;;
31674;SDS011;18276;45.520;11.018;2023-06-04T06:37:52;10.52;;;8.00;;
31674;SDS011;18276;45.520;11.018;2023-06-04T06:40:19;11.50;;;8.52;;
31674;SDS011;18276;45.520;11.018;2023-06-04T06:42:49;10.40;;;7.57;;
31674;SDS011;18276;45.520;11.018;2023-06-04T06:45:19;13.77;;;9.48;;
31674;SDS011;18276;45.520;11.018;2023-06-04T06:47:46;9.40;;;7.70;;
31674;SDS011;18276;45.520;11.018;2023-06-04T06:50:14;11.65;;;7.95;;
31674;SDS011;18276;45.520;11.018;2023-06-04T06:52:41;10.90;;;8.10;;
31674;SDS011;18276;45.520;11.018;2023-06-04T06:55:08;12.68;;;8.43;;
31674;SDS011;18276;45.520;11.018;2023-06-04T06:57:35;9.85;;;7.68;;
31674;SDS011;18276;45.520;11.018;2023-06-04T07:00:02;11.50;;;7.82;;
31674;SDS011;18276;45.520;11.018;2023-06-04T07:02:30;15.32;;;8.35;;
31674;SDS011;18276;45.520;11.018;2023-06-04T07:04:57;10.50;;;8.20;;
31674;SDS011;18276;45.520;11.018;2023-06-04T07:07:24;10.57;;;8.57;;
31674;SDS011;18276;45.520;11.018;2023-06-04T07:09:51;11.85;;;8.27;;
31674;SDS011;18276;45.520;11.018;2023-06-04T07:12:18;11.25;;;8.13;;
31674;SDS011;18276;45.520;11.018;2023-06-04T07:14:45;9.63;;;7.78;;
31674;SDS011;18276;45.520;11.018;2023-06-04T07:17:13;8.05;;;7.13;;
31674;SDS011;18276;45.520;11.018;2023-06-04T07:19:40;13.45;;;7.85;;
31674;SDS011;18276;45.520;11.018;2023-06-04T07:22:07;13.15;;;8.25;;
31674;SDS011;18276;45.520;11.018;2023-06-04T07:24:34;10.80;;;8.40;;
31674;SDS011;18276;45.520;11.018;2023-06-04T07:27:02;10.38;;;7.70;;
31674;SDS011;18276;45.520;11.018;2023-06-04T07:29:35;10.35;;;8.25;;
31674;SDS011;18276;45.520;11.018;2023-06-04T07:32:03;15.15;;;8.50;;
31674;SDS011;18276;45.520;11.018;2023-06-04T07:34:31;12.95;;;9.02;;
31674;SDS011;18276;45.520;11.018;2023-06-04T07:36:58;11.48;;;8.57;;
31674;SDS011;18276;45.520;11.018;2023-06-04T07:39:25;10.15;;;8.80;;
31674;SDS011;18276;45.520;11.018;2023-06-04T07:41:52;10.65;;;8.52;;
31674;SDS011;18276;45.520;11.018;2023-06-04T07:44:20;10.85;;;8.18;;
31674;SDS011;18276;45.520;11.018;2023-06-04T07:46:47;10.60;;;7.85;;
31674;SDS011;18276;45.520;11.018;2023-06-04T07:49:15;12.50;;;9.13;;
31674;SDS011;18276;45.520;11.018;2023-06-04T07:51:42;11.15;;;9.30;;
31674;SDS011;18276;45.520;11.018;2023-06-04T07:54:10;10.75;;;9.05;;
31674;SDS011;18276;45.520;11.018;2023-06-04T07:56:43;11.00;;;9.48;;
31674;SDS011;18276;45.520;11.018;2023-06-04T07:59:10;16.77;;;11.88;;
31674;SDS011;18276;45.520;11.018;2023-06-04T08:01:37;12.45;;;9.07;;
31674;SDS011;18276;45.520;11.018;2023-06-04T08:04:04;14.70;;;11.35;;
31674;SDS011;18276;45.520;11.018;2023-06-04T08:06:31;13.68;;;9.30;;
31674;SDS011;18276;45.520;11.018;2023-06-04T08:08:59;21.67;;;10.23;;
31674;SDS011;18276;45.520;11.018;2023-06-04T08:11:26;13.90;;;9.20;;
31674;SDS011;18276;45.520;11.018;2023-06-04T08:13:53;14.23;;;8.93;;
31674;SDS011;18276;45.520;11.018;2023-06-04T08:16:20;9.27;;;8.38;;
31674;SDS011;18276;45.520;11.018;2023-06-04T08:18:47;12.25;;;9.15;;
31674;SDS011;18276;45.520;11.018;2023-06-04T08:21:24;10.18;;;8.20;;
31674;SDS011;18276;45.520;11.018;2023-06-04T08:23:52;14.27;;;8.60;;
31674;SDS011;18276;45.520;11.018;2023-06-04T08:26:19;12.20;;;8.43;;
31674;SDS011;18276;45.520;11.018;2023-06-04T08:28:47;9.65;;;8.52;;
31674;SDS011;18276;45.520;11.018;2023-06-04T08:31:15;8.40;;;7.50;;
31674;SDS011;18276;45.520;11.018;2023-06-04T08:33:45;12.10;;;7.80;;
31674;SDS011;18276;45.520;11.018;2023-06-04T08:36:13;10.27;;;7.45;;
31674;SDS011;18276;45.520;11.018;2023-06-04T08:38:40;12.52;;;7.88;;
31674;SDS011;18276;45.520;11.018;2023-06-04T08:43:58;8.30;;;6.65;;
31674;SDS011;18276;45.520;11.018;2023-06-04T08:46:28;10.38;;;7.38;;
31674;SDS011;18276;45.520;11.018;2023-06-04T08:49:00;8.68;;;6.82;;
31674;SDS011;18276;45.520;11.018;2023-06-04T08:51:30;8.45;;;6.85;;
31674;SDS011;18276;45.520;11.018;2023-06-04T08:54:00;9.15;;;7.20;;
31674;SDS011;18276;45.520;11.018;2023-06-04T08:56:27;9.18;;;6.93;;
31674;SDS011;18276;45.520;11.018;2023-06-04T08:58:59;11.25;;;8.50;;
31674;SDS011;18276;45.520;11.018;2023-06-04T09:01:29;12.32;;;9.10;;
31674;SDS011;18276;45.520;11.018;2023-06-04T09:04:01;10.40;;;7.80;;
31674;SDS011;18276;45.520;11.018;2023-06-04T09:06:33;14.57;;;8.45;;
31674;SDS011;18276;45.520;11.018;2023-06-04T09:09:04;10.70;;;8.80;;
31674;SDS011;18276;45.520;11.018;2023-06-04T09:11:45;10.63;;;8.90;;
31674;SDS011;18276;45.520;11.018;2023-06-04T09:16:47;11.27;;;7.95;;
31674;SDS011;18276;45.520;11.018;2023-06-04T09:19:19;10.38;;;7.55;;
31674;SDS011;18276;45.520;11.018;2023-06-04T09:21:51;10.43;;;8.15;;
31674;SDS011;18276;45.520;11.018;2023-06-04T09:24:23;10.90;;;8.88;;
31674;SDS011;18276;45.520;11.018;2023-06-04T09:27:14;12.70;;;9.50;;
31674;SDS011;18276;45.520;11.018;2023-06-04T09:29:52;12.35;;;9.57;;
31674;SDS011;18276;45.520;11.018;2023-06-04T09:32:21;10.63;;;9.35;;
31674;SDS011;18276;45.520;11.018;2023-06-04T09:34:53;13.35;;;9.80;;
31674;SDS011;18276;45.520;11.018;2023-06-04T09:37:23;13.80;;;9.45;;
31674;SDS011;18276;45.520;11.018;2023-06-04T09:39:56;11.10;;;9.20;;
31674;SDS011;18276;45.520;11.018;2023-06-04T09:42:24;12.98;;;8.82;;
31674;SDS011;18276;45.520;11.018;2023-06-04T09:44:51;12.73;;;8.88;;
31674;SDS011;18276;45.520;11.018;2023-06-04T09:47:18;9.57;;;8.55;;
31674;SDS011;18276;45.520;11.018;2023-06-04T09:49:46;9.73;;;8.40;;
31674;SDS011;18276;45.520;11.018;2023-06-04T09:52:16;12.90;;;8.45;;
31674;SDS011;18276;45.520;11.018;2023-06-04T09:54:43;12.48;;;8.93;;
31674;SDS011;18276;45.520;11.018;2023-06-04T09:57:14;16.60;;;9.77;;
31674;SDS011;18276;45.520;11.018;2023-06-04T09:59:45;13.10;;;9.30;;
31674;SDS011;18276;45.520;11.018;2023-06-04T10:02:19;10.98;;;8.60;;
31674;SDS011;18276;45.520;11.018;2023-06-04T10:04:57;12.67;;;9.50;;
31674;SDS011;18276;45.520;11.018;2023-06-04T10:07:26;13.95;;;9.98;;
31674;SDS011;18276;45.520;11.018;2023-06-04T10:09:53;9.68;;;8.57;;
31674;SDS011;18276;45.520;11.018;2023-06-04T10:12:23;15.27;;;8.48;;
31674;SDS011;18276;45.520;11.018;2023-06-04T10:17:23;12.48;;;7.95;;
31674;SDS011;18276;45.520;11.018;2023-06-04T10:19:51;10.80;;;8.43;;
31674;SDS011;18276;45.520;11.018;2023-06-04T10:22:20;11.27;;;8.43;;
31674;SDS011;18276;45.520;11.018;2023-06-04T10:24:48;9.57;;;6.82;;
31674;SDS011;18276;45.520;11.018;2023-06-04T10:27:18;9.10;;;7.68;;
31674;SDS011;18276;45.520;11.018;2023-06-04T17:24:15;12.70;;;9.20;;
31674;SDS011;18276;45.520;11.018;2023-06-04T17:26:42;12.88;;;9.40;;
31674;SDS011;18276;45.520;11.018;2023-06-04T17:29:09;11.23;;;9.18;;
31674;SDS011;18276;45.520;11.018;2023-06-04T17:31:36;14.23;;;9.00;;
31674;SDS011;18276;45.520;11.018;2023-06-04T17:34:03;10.23;;;8.95;;
31674;SDS011;18276;45.520;11.018;2023-06-04T17:36:30;13.02;;;9.73;;
31674;SDS011;18276;45.520;11.018;2023-06-04T17:38:57;11.98;;;9.93;;
31674;SDS011;18276;45.520;11.018;2023-06-04T17:41:25;13.50;;;10.35;;
31674;SDS011;18276;45.520;11.018;2023-06-04T17:43:53;12.02;;;9.98;;
31674;SDS011;18276;45.520;11.018;2023-06-04T17:46:21;14.43;;;10.77;;
31674;SDS011;18276;45.520;11.018;2023-06-04T17:48:49;13.18;;;10.57;;
31674;SDS011;18276;45.520;11.018;2023-06-04T17:51:17;16.27;;;11.05;;
31674;SDS011;18276;45.520;11.018;2023-06-04T17:53:44;18.65;;;12.73;;
31674;SDS011;18276;45.520;11.018;2023-06-04T17:56:11;15.00;;;12.52;;
31674;SDS011;18276;45.520;11.018;2023-06-04T17:58:38;18.38;;;12.85;;
31674;SDS011;18276;45.520;11.018;2023-06-04T18:01:05;16.33;;;13.25;;
31674;SDS011;18276;45.520;11.018;2023-06-04T18:03:32;15.40;;;11.98;;
31674;SDS011;18276;45.520;11.018;2023-06-04T18:05:59;16.83;;;12.23;;
31674;SDS011;18276;45.520;11.018;2023-06-04T18:08:26;18.33;;;13.15;;
31674;SDS011;18276;45.520;11.018;2023-06-04T18:10:53;19.23;;;12.60;;
31674;SDS011;18276;45.520;11.018;2023-06-04T18:13:22;23.85;;;14.23;;
31674;SDS011;18276;45.520;11.018;2023-06-04T18:15:49;20.95;;;14.30;;
31674;SDS011;18276;45.520;11.018;2023-06-04T18:18:16;18.48;;;12.18;;
31674;SDS011;18276;45.520;11.018;2023-06-04T18:20:43;11.80;;;8.27;;
31674;SDS011;18276;45.520;11.018;2023-06-04T18:23:10;6.25;;;4.18;;
31674;SDS011;18276;45.520;11.018;2023-06-04T18:25:38;5.80;;;3.40;;
31674;SDS011;18276;45.520;11.018;2023-06-04T18:28:05;6.00;;;3.45;;
31674;SDS011;18276;45.520;11.018;2023-06-04T18:33:00;3.75;;;3.00;;
31674;SDS011;18276;45.520;11.018;2023-06-04T18:35:27;4.10;;;3.25;;
31674;SDS011;18276;45.520;11.018;2023-06-04T18:37:55;4.97;;;3.53;;
31674;SDS011;18276;45.520;11.018;2023-06-04T18:40:22;6.60;;;3.38;;
31674;SDS011;18276;45.520;11.018;2023-06-04T18:42:50;7.90;;;4.10;;
31674;SDS011;18276;45.520;11.018;2023-06-04T18:45:17;6.38;;;3.70;;
31674;SDS011;18276;45.520;11.018;2023-06-04T18:47:45;4.55;;;3.40;;
31674;SDS011;18276;45.520;11.018;2023-06-04T18:50:15;6.22;;;4.22;;
31674;SDS011;18276;45.520;11.018;2023-06-04T18:52:42;7.78;;;4.53;;
31674;SDS011;18276;45.520;11.018;2023-06-04T18:55:10;6.93;;;4.05;;
31674;SDS011;18276;45.520;11.018;2023-06-04T18:57:40;5.68;;;4.00;;
31674;SDS011;18276;45.520;11.018;2023-06-04T19:00:07;6.70;;;4.18;;
31674;SDS011;18276;45.520;11.018;2023-06-04T19:02:38;6.95;;;4.57;;
31674;SDS011;18276;45.520;11.018;2023-06-04T19:05:10;6.70;;;4.68;;
31674;SDS011;18276;45.520;11.018;2023-06-04T19:07:38;9.85;;;4.85;;
31674;SDS011;18276;45.520;11.018;2023-06-04T19:10:06;7.32;;;5.45;;
31674;SDS011;18276;45.520;11.018;2023-06-04T19:12:35;11.63;;;5.57;;
31674;SDS011;18276;45.520;11.018;2023-06-04T19:15:02;8.55;;;5.60;;
31674;SDS011;18276;45.520;11.018;2023-06-04T19:17:29;8.82;;;5.53;;
31674;SDS011;18276;45.520;11.018;2023-06-04T19:19:57;11.43;;;6.10;;
31674;SDS011;18276;45.520;11.018;2023-06-04T19:22:24;9.93;;;6.78;;
31674;SDS011;18276;45.520;11.018;2023-06-04T19:24:51;11.73;;;6.80;;
31674;SDS011;18276;45.520;11.018;2023-06-04T19:27:18;15.45;;;6.75;;
31674;SDS011;18276;45.520;11.018;2023-06-04T19:29:45;9.98;;;6.35;;
31674;SDS011;18276;45.520;11.018;2023-06-04T19:32:13;9.40;;;6.32;;
31674;SDS011;18276;45.520;11.018;2023-06-04T19:34:40;12.52;;;6.43;;
31674;SDS011;18276;45.520;11.018;2023-06-04T19:37:08;10.70;;;7.03;;
31674;SDS011;18276;45.520;11.018;2023-06-04T19:39:35;10.20;;;6.50;;
31674;SDS011;18276;45.520;11.018;2023-06-04T19:42:02;11.38;;;7.40;;
31674;SDS011;18276;45.520;11.018;2023-06-04T19:44:29;13.88;;;7.35;;
31674;SDS011;18276;45.520;11.018;2023-06-04T19:46:56;13.30;;;7.47;;
31674;SDS011;18276;45.520;11.018;2023-06-04T19:49:24;11.90;;;7.22;;
31674;SDS011;18276;45.520;11.018;2023-06-04T19:51:50;9.85;;;6.60;;
31674;SDS011;18276;45.520;11.018;2023-06-04T19:54:19;11.93;;;7.55;;
31674;SDS011;18276;45.520;11.018;2023-06-04T19:56:46;9.75;;;6.28;;
31674;SDS011;18276;45.520;11.018;2023-06-04T19:59:13;11.93;;;6.72;;
31674;SDS011;18276;45.520;11.018;2023-06-04T20:01:40;13.35;;;7.35;;
31674;SDS011;18276;45.520;11.018;2023-06-04T20:04:07;15.18;;;7.28;;
31674;SDS011;18276;45.520;11.018;2023-06-04T20:06:34;9.38;;;6.22;;
31674;SDS011;18276;45.520;11.018;2023-06-04T20:09:01;9.77;;;6.10;;
31674;SDS011;18276;45.520;11.018;2023-06-04T20:11:30;9.05;;;6.53;;
31674;SDS011;18276;45.520;11.018;2023-06-04T20:13:58;11.38;;;6.15;;
31674;SDS011;18276;45.520;11.018;2023-06-04T20:16:25;7.18;;;5.80;;
31674;SDS011;18276;45.520;11.018;2023-06-04T20:18:52;11.50;;;6.00;;
31674;SDS011;18276;45.520;11.018;2023-06-04T20:21:19;10.95;;;6.47;;
31674;SDS011;18276;45.520;11.018;2023-06-04T20:23:46;9.52;;;5.45;;
31674;SDS011;18276;45.520;11.018;2023-06-04T20:26:16;8.77;;;5.78;;
31674;SDS011;18276;45.520;11.018;2023-06-04T20:28:44;9.75;;;5.90;;
31674;SDS011;18276;45.520;11.018;2023-06-04T20:31:11;5.50;;;4.45;;
31674;SDS011;18276;45.520;11.018;2023-06-04T20:33:38;7.45;;;5.35;;
31674;SDS011;18276;45.520;11.018;2023-06-04T20:36:05;6.50;;;4.85;;
31674;SDS011;18276;45.520;11.018;2023-06-04T20:38:35;7.53;;;5.45;;
31674;SDS011;18276;45.520;11.018;2023-06-04T20:41:02;5.82;;;4.90;;
31674;SDS011;18276;45.520;11.018;2023-06-04T20:43:45;7.20;;;5.25;;
31674;SDS011;18276;45.520;11.018;2023-06-04T20:46:13;7.03;;;4.75;;
31674;SDS011;18276;45.520;11.018;2023-06-04T20:48:41;11.82;;;5.57;;
31674;SDS011;18276;45.520;11.018;2023-06-04T20:51:08;9.23;;;5.40;;
31674;SDS011;18276;45.520;11.018;2023-06-04T20:53:36;7.88;;;5.43;;
31674;SDS011;18276;45.520;11.018;2023-06-04T20:56:03;8.00;;;5.30;;
31674;SDS011;18276;45.520;11.018;2023-06-04T20:58:31;9.77;;;6.22;;
31674;SDS011;18276;45.520;11.018;2023-06-04T21:00:58;9.85;;;5.80;;
31674;SDS011;18276;45.520;11.018;2023-06-04T21:03:25;10.35;;;6.25;;
31674;SDS011;18276;45.520;11.018;2023-06-04T21:05:54;11.07;;;6.10;;
31674;SDS011;18276;45.520;11.018;2023-06-04T21:08:25;9.65;;;6.07;;
31674;SDS011;18276;45.520;11.018;2023-06-04T21:10:52;8.00;;;5.50;;
31674;SDS011;18276;45.520;11.018;2023-06-04T21:13:19;8.88;;;6.35;;
31674;SDS011;18276;45.520;11.018;2023-06-04T21:15:46;7.75;;;5.30;;
31674;SDS011;18276;45.520;11.018;2023-06-04T21:18:14;8.88;;;5.68;;
31674;SDS011;18276;45.520;11.018;2023-06-04T21:20:41;9.25;;;5.15;;
31674;SDS011;18276;45.520;11.018;2023-06-04T21:23:08;7.55;;;5.30;;
31674;SDS011;18276;45.520;11.018;2023-06-04T21:25:36;7.38;;;4.35;;
31674;SDS011;18276;45.520;11.018;2023-06-04T21:28:03;6.82;;;4.50;;
31674;SDS011;18276;45.520;11.018;2023-06-04T21:30:30;9.27;;;4.57;;
31674;SDS011;18276;45.520;11.018;2023-06-04T21:32:58;13.10;;;4.60;;
31674;SDS011;18276;45.520;11.018;2023-06-04T21:35:25;7.45;;;4.95;;
31674;SDS011;18276;45.520;11.018;2023-06-04T21:37:52;7.63;;;4.60;;
31674;SDS011;18276;45.520;11.018;2023-06-04T21:40:19;6.70;;;4.47;;
31674;SDS011;18276;45.520;11.018;2023-06-04T21:42:46;7.25;;;4.18;;
31674;SDS011;18276;45.520;11.018;2023-06-04T21:45:13;6.72;;;5.38;;